createdAt,value
2023-04-12T00:00:17.100Z,10.00
2023-04-12T00:05:33.893Z,10.00
2023-04-12T00:08:04.291Z,10.00
2023-04-12T00:10:32.043Z,10.00
2023-04-12T00:12:58.619Z,10.00
2023-04-12T00:15:31.596Z,10.00
2023-04-12T00:18:00.506Z,9.90
2023-04-12T00:20:27.497Z,9.90
2023-04-12T00:22:54.090Z,9.80
2023-04-12T00:25:22.920Z,9.80
2023-04-12T00:30:46.104Z,9.70
2023-04-12T00:33:12.964Z,9.60
2023-04-12T00:35:43.712Z,9.60
2023-04-12T00:38:11.086Z,9.50
2023-04-12T00:40:43.107Z,9.50
2023-04-12T00:43:19.114Z,9.50
2023-04-12T00:45:50.396Z,9.50
2023-04-12T00:48:18.526Z,9.50
2023-04-12T00:50:49.245Z,9.40
2023-04-12T00:53:18.091Z,9.40
2023-04-12T00:55:51.715Z,9.40
2023-04-12T00:58:27.075Z,9.30
2023-04-12T01:00:59.552Z,9.30
2023-04-12T01:03:30.030Z,9.30
2023-04-12T01:06:15.984Z,9.30
2023-04-12T01:08:55.387Z,9.30
2023-04-12T01:11:32.655Z,9.20
2023-04-12T01:14:16.169Z,9.20
2023-04-12T01:16:50.380Z,9.20
2023-04-12T01:19:53.468Z,9.20
2023-04-12T01:22:32.010Z,9.20
2023-04-12T01:25:23.465Z,9.10
2023-04-12T01:28:06.200Z,9.00
2023-04-12T01:30:39.110Z,9.00
2023-04-12T01:33:11.386Z,9.00
2023-04-12T01:35:41.735Z,9.00
2023-04-12T01:44:26.319Z,8.90
2023-04-12T01:46:58.431Z,8.90
2023-04-12T01:49:41.404Z,8.80
2023-04-12T01:52:21.377Z,8.80
2023-04-12T01:54:51.734Z,8.80
2023-04-12T01:57:20.093Z,8.80
2023-04-12T01:59:49.616Z,8.80
2023-04-12T02:02:16.962Z,8.80
2023-04-12T02:05:10.373Z,8.80
2023-04-12T02:07:37.109Z,8.80
2023-04-12T02:10:04.213Z,8.80
2023-04-12T02:12:32.220Z,8.80
2023-04-12T02:14:59.551Z,8.80
2023-04-12T02:17:26.452Z,8.80
2023-04-12T02:19:57.105Z,8.80
2023-04-12T02:25:17.017Z,8.70
2023-04-12T02:27:45.601Z,8.70
2023-04-12T02:30:18.258Z,8.70
2023-04-12T02:32:55.442Z,8.70
2023-04-12T02:35:35.651Z,8.70
2023-04-12T02:38:08.822Z,8.70
2023-04-12T02:40:44.484Z,8.70
2023-04-12T02:43:19.263Z,8.70
2023-04-12T02:45:58.041Z,8.70
2023-04-12T02:48:25.362Z,8.70
2023-04-12T02:53:49.602Z,8.70
2023-04-12T02:56:23.900Z,8.70
2023-04-12T02:59:02.205Z,8.70
2023-04-12T03:01:45.700Z,8.70
2023-04-12T03:04:22.110Z,8.70
2023-04-12T03:09:45.561Z,8.70
2023-04-12T03:12:17.028Z,8.70
2023-04-12T03:21:08.087Z,8.60
2023-04-12T03:23:37.080Z,8.60
2023-04-12T03:26:14.803Z,8.60
2023-04-12T03:29:01.136Z,8.60
2023-04-12T03:31:36.457Z,8.60
2023-04-12T03:34:07.584Z,8.60
2023-04-12T03:36:40.773Z,8.60
2023-04-12T03:39:22.328Z,8.60
2023-04-12T03:41:55.253Z,8.50
2023-04-12T03:44:31.907Z,8.50
2023-04-12T03:50:12.277Z,8.50
2023-04-12T03:52:44.862Z,8.50
2023-04-12T03:55:17.445Z,8.50
2023-04-12T03:57:44.804Z,8.40
2023-04-12T04:00:13.873Z,8.40
2023-04-12T04:03:04.860Z,8.50
2023-04-12T04:05:41.301Z,8.50
2023-04-12T04:08:33.318Z,8.50
2023-04-12T04:11:04.411Z,8.40
2023-04-12T04:13:41.310Z,8.40
2023-04-12T04:16:12.438Z,8.40
2023-04-12T04:19:04.562Z,8.40
2023-04-12T04:21:34.608Z,8.40
2023-04-12T04:24:03.380Z,8.40
2023-04-12T04:26:41.331Z,8.40
2023-04-12T04:29:24.875Z,8.40
2023-04-12T04:31:53.061Z,8.40
2023-04-12T04:37:13.053Z,8.50
2023-04-12T04:39:45.673Z,8.40
2023-04-12T04:42:18.502Z,8.40
2023-04-12T04:45:03.073Z,8.50
2023-04-12T04:47:35.909Z,8.40
2023-04-12T04:50:03.079Z,8.50
2023-04-12T04:52:37.365Z,8.40
2023-04-12T04:55:14.364Z,8.50
2023-04-12T04:57:47.003Z,8.50
2023-04-12T05:00:15.782Z,8.50
2023-04-12T05:02:48.768Z,8.50
2023-04-12T05:05:23.268Z,8.50
2023-04-12T05:07:56.718Z,8.50
2023-04-12T05:10:26.573Z,8.50
2023-04-12T05:12:57.276Z,8.50
2023-04-12T05:15:24.596Z,8.50
2023-04-12T05:17:54.283Z,8.60
2023-04-12T05:20:27.452Z,8.50
2023-04-12T05:22:56.369Z,8.60
2023-04-12T05:25:26.676Z,8.60
2023-04-12T05:28:12.428Z,8.60
2023-04-12T05:30:42.013Z,8.60
2023-04-12T05:33:36.793Z,8.60
2023-04-12T05:36:04.731Z,8.60
2023-04-12T05:39:00.427Z,8.60
2023-04-12T05:41:34.208Z,8.70
2023-04-12T05:44:02.837Z,8.70
2023-04-12T05:49:15.439Z,8.70
2023-04-12T05:51:45.500Z,8.80
2023-04-12T05:54:26.455Z,8.80
2023-04-12T05:56:54.775Z,8.80
2023-04-12T05:59:22.440Z,8.80
2023-04-12T06:01:50.332Z,8.80
2023-04-12T06:04:27.919Z,8.80
2023-04-12T06:07:02.702Z,8.80
2023-04-12T06:09:30.330Z,8.80
2023-04-12T06:11:58.523Z,8.80
2023-04-12T06:14:36.272Z,8.80
2023-04-12T06:17:03.098Z,8.90
2023-04-12T06:19:29.768Z,8.90
2023-04-12T06:22:02.223Z,8.90
2023-04-12T06:24:56.203Z,8.90
2023-04-12T06:27:28.063Z,8.90
2023-04-12T06:29:56.679Z,9.00
2023-04-12T06:32:23.552Z,9.00
2023-04-12T06:34:52.016Z,9.00
2023-04-12T06:37:23.639Z,9.00
2023-04-12T06:40:13.586Z,9.00
2023-04-12T06:48:40.545Z,9.10
2023-04-12T06:51:08.592Z,9.20
2023-04-12T06:53:37.504Z,9.20
2023-04-12T06:56:07.215Z,9.20
2023-04-12T06:58:35.450Z,9.20
2023-04-12T07:01:09.403Z,9.30
2023-04-12T07:03:36.565Z,9.30
2023-04-12T07:06:13.778Z,9.40
2023-04-12T07:08:48.836Z,9.40
2023-04-12T07:11:21.496Z,9.40
2023-04-12T07:13:56.762Z,9.40
2023-04-12T07:16:33.247Z,9.50
2023-04-12T07:19:01.758Z,9.50
2023-04-12T07:21:28.693Z,9.50
2023-04-12T07:23:57.472Z,9.50
2023-04-12T07:26:24.053Z,9.60
2023-04-12T07:28:51.871Z,9.60
2023-04-12T07:31:24.868Z,9.70
2023-04-12T07:33:51.865Z,9.70
2023-04-12T07:36:23.756Z,9.70
2023-04-12T07:38:54.831Z,9.70
2023-04-12T07:41:22.473Z,9.80
2023-04-12T07:43:49.644Z,9.80
2023-04-12T07:46:20.163Z,9.80
2023-04-12T07:48:46.833Z,9.90
2023-04-12T07:51:13.753Z,9.90
2023-04-12T07:53:41.604Z,10.00
2023-04-12T07:56:11.733Z,10.10
2023-04-12T07:58:38.489Z,10.20
2023-04-12T08:01:06.623Z,10.30
2023-04-12T08:06:54.618Z,10.40
2023-04-12T08:09:26.456Z,10.40
2023-04-12T08:11:56.092Z,10.40
2023-04-12T08:14:28.739Z,10.50
2023-04-12T08:16:55.459Z,10.50
2023-04-12T08:19:26.869Z,10.60
2023-04-12T08:21:53.564Z,10.60
2023-04-12T08:24:21.946Z,10.70
2023-04-12T08:26:51.647Z,10.70
2023-04-12T08:29:20.672Z,10.70
2023-04-12T08:31:47.420Z,10.80
2023-04-12T08:34:14.272Z,10.80
2023-04-12T08:37:05.894Z,10.90
2023-04-12T08:39:34.665Z,11.10
2023-04-12T08:42:04.292Z,11.10
2023-04-12T08:44:38.804Z,11.20
2023-04-12T08:47:08.941Z,11.40
2023-04-12T08:49:38.384Z,11.40
2023-04-12T08:52:09.712Z,11.40
2023-04-12T08:54:37.822Z,11.50
2023-04-12T08:57:09.156Z,11.50
2023-04-12T08:59:42.941Z,11.50
2023-04-12T09:02:10.276Z,11.50
2023-04-12T09:04:49.718Z,11.60
2023-04-12T09:07:17.740Z,11.60
2023-04-12T09:09:45.921Z,11.60
2023-04-12T09:12:15.126Z,11.60
2023-04-12T09:14:44.234Z,11.70
2023-04-12T09:17:24.777Z,11.70
2023-04-12T09:19:52.763Z,11.70
2023-04-12T09:22:34.717Z,11.70
2023-04-12T09:25:05.726Z,11.70
2023-04-12T09:27:49.564Z,11.80
2023-04-12T09:30:21.816Z,11.80
2023-04-12T09:32:52.811Z,11.90
2023-04-12T09:36:00.436Z,11.90
2023-04-12T09:38:29.872Z,12.00
2023-04-12T09:41:20.434Z,12.10
2023-04-12T09:43:50.376Z,12.20
2023-04-12T09:46:22.972Z,12.20
2023-04-12T09:48:58.076Z,12.30
2023-04-12T09:51:28.526Z,12.30
2023-04-12T09:54:01.874Z,12.30
2023-04-12T09:56:34.898Z,12.30
2023-04-12T09:59:40.162Z,12.40
2023-04-12T10:02:34.606Z,12.40
2023-04-12T10:05:03.866Z,12.50
2023-04-12T10:07:30.850Z,12.50
2023-04-12T10:10:03.447Z,12.50
2023-04-12T10:12:30.332Z,12.60
2023-04-12T10:14:58.241Z,12.60
2023-04-12T10:17:25.871Z,12.70
2023-04-12T10:20:02.496Z,12.70
2023-04-12T10:22:33.814Z,12.70
2023-04-12T10:25:03.635Z,12.70
2023-04-12T10:27:35.697Z,12.80
2023-04-12T10:30:21.704Z,12.80
2023-04-12T10:33:11.920Z,12.80
2023-04-12T10:35:47.720Z,12.90
2023-04-12T10:38:20.063Z,13.00
2023-04-12T10:41:15.935Z,13.10
2023-04-12T10:43:50.763Z,13.20
2023-04-12T10:46:45.086Z,13.20
2023-04-12T10:49:15.920Z,13.20
2023-04-12T10:52:11.925Z,13.30
2023-04-12T10:54:40.531Z,13.40
2023-04-12T10:57:48.799Z,13.40
2023-04-12T11:00:17.993Z,13.50
2023-04-12T11:03:09.006Z,13.50
2023-04-12T11:05:57.748Z,13.60
2023-04-12T11:08:54.949Z,13.70
2023-04-12T11:11:34.117Z,13.70
2023-04-12T11:14:03.060Z,13.80
2023-04-12T11:16:32.291Z,13.80
2023-04-12T11:19:00.525Z,13.80
2023-04-12T11:21:27.621Z,13.80
2023-04-12T11:23:55.625Z,13.80
2023-04-12T11:26:22.279Z,13.80
2023-04-12T11:28:52.592Z,14.00
2023-04-12T11:31:22.367Z,14.10
2023-04-12T11:33:54.044Z,14.20
2023-04-12T11:36:21.688Z,14.20
2023-04-12T11:38:50.870Z,14.20
2023-04-12T11:41:17.859Z,14.30
2023-04-12T11:43:46.157Z,14.30
2023-04-12T11:46:32.522Z,14.30
2023-04-12T11:48:59.512Z,14.40
2023-04-12T11:51:29.846Z,14.30
2023-04-12T11:53:59.540Z,14.40
2023-04-12T11:56:28.833Z,14.30
2023-04-12T11:58:55.739Z,14.40
2023-04-12T12:01:22.814Z,14.40
2023-04-12T12:03:49.991Z,14.40
2023-04-12T12:06:19.019Z,14.50
2023-04-12T12:08:51.817Z,14.50
2023-04-12T12:11:24.024Z,14.50
2023-04-12T12:13:55.457Z,14.60
2023-04-12T12:16:29.575Z,14.60
2023-04-12T12:19:05.593Z,14.60
2023-04-12T12:21:35.129Z,14.70
2023-04-12T12:24:01.982Z,14.70
2023-04-12T12:26:29.812Z,14.80
2023-04-12T12:28:59.563Z,14.80
2023-04-12T12:31:32.849Z,14.90
2023-04-12T12:34:04.915Z,15.00
2023-04-12T12:36:37.833Z,15.10
2023-04-12T12:39:14.754Z,15.20
2023-04-12T12:41:42.352Z,15.30
2023-04-12T12:44:10.357Z,15.40
2023-04-12T12:46:52.050Z,15.50
2023-04-12T12:49:22.042Z,15.60
2023-04-12T12:51:53.662Z,15.70
2023-04-12T12:54:38.797Z,15.80
2023-04-12T12:57:06.796Z,15.80
2023-04-12T12:59:33.576Z,15.70
2023-04-12T13:02:15.198Z,15.80
2023-04-12T13:04:45.856Z,15.90
2023-04-12T13:07:25.208Z,16.10
2023-04-12T13:09:56.034Z,16.30
2023-04-12T13:12:31.994Z,16.20
2023-04-12T13:15:17.466Z,16.10
2023-04-12T13:17:54.997Z,16.20
2023-04-12T13:20:28.576Z,16.30
2023-04-12T13:22:57.226Z,16.30
2023-04-12T13:25:37.290Z,16.30
2023-04-12T13:28:07.489Z,16.30
2023-04-12T13:30:36.077Z,16.50
2023-04-12T13:33:04.876Z,16.70
2023-04-12T13:35:36.751Z,17.00
2023-04-12T13:38:03.572Z,17.30
2023-04-12T13:40:34.806Z,17.40
2023-04-12T13:43:04.540Z,17.50
2023-04-12T13:45:36.952Z,17.70
2023-04-12T13:48:19.385Z,17.90
2023-04-12T13:50:55.551Z,17.80
2023-04-12T13:53:33.347Z,17.50
2023-04-12T13:56:08.129Z,17.50
2023-04-12T13:58:36.768Z,17.30
2023-04-12T14:01:23.883Z,17.20
2023-04-12T14:03:52.843Z,17.10
2023-04-12T14:06:19.807Z,17.10
2023-04-12T14:08:50.437Z,17.00
2023-04-12T14:11:17.103Z,16.90
2023-04-12T14:13:43.661Z,16.80
2023-04-12T14:16:14.369Z,16.70
2023-04-12T14:18:44.918Z,16.60
2023-04-12T14:21:13.588Z,16.50
2023-04-12T14:23:40.886Z,16.40
2023-04-12T14:26:12.501Z,16.30
2023-04-12T14:28:39.372Z,16.00
2023-04-12T14:31:09.600Z,15.80
2023-04-12T14:33:36.612Z,15.70
2023-04-12T14:36:04.296Z,15.40
2023-04-12T14:38:31.019Z,15.20
2023-04-12T14:40:59.890Z,14.90
2023-04-12T14:43:26.796Z,14.40
2023-04-12T14:45:53.517Z,14.00
2023-04-12T14:48:20.912Z,13.70
2023-04-12T14:50:54.135Z,13.40
2023-04-12T14:53:21.551Z,13.20
2023-04-12T14:55:48.260Z,12.90
2023-04-12T14:58:14.990Z,12.70
2023-04-12T15:00:41.785Z,12.60
2023-04-12T15:03:11.793Z,12.50
2023-04-12T15:05:40.821Z,12.50
2023-04-12T15:08:08.468Z,12.40
2023-04-12T15:10:37.713Z,12.40
2023-04-12T15:13:04.439Z,12.30
2023-04-12T15:15:31.102Z,12.30
2023-04-12T15:18:00.000Z,12.30
2023-04-12T15:20:29.017Z,12.30
2023-04-12T15:22:58.044Z,12.20
2023-04-12T15:25:27.561Z,12.20
2023-04-12T15:27:55.284Z,12.10
2023-04-12T15:30:22.747Z,12.10
2023-04-12T15:32:49.957Z,12.10
2023-04-12T15:35:26.151Z,12.10
2023-04-12T15:37:54.434Z,12.00
2023-04-12T15:40:21.864Z,12.00
2023-04-12T15:42:48.708Z,12.00
2023-04-12T15:45:15.438Z,12.00
2023-04-12T15:47:42.161Z,11.90
2023-04-12T15:50:12.100Z,11.90
2023-04-12T15:52:42.143Z,11.90
2023-04-12T15:55:11.013Z,12.00
2023-04-12T15:57:43.411Z,12.00
2023-04-12T16:00:25.196Z,12.10
2023-04-12T16:02:54.390Z,12.10
2023-04-12T16:05:25.878Z,12.10
2023-04-12T16:08:18.958Z,12.10
2023-04-12T16:10:45.581Z,12.10
2023-04-12T16:13:29.419Z,12.10
2023-04-12T16:15:56.143Z,12.10
2023-04-12T16:18:28.695Z,12.10
2023-04-12T16:20:59.831Z,12.20
2023-04-12T16:26:46.420Z,12.20
2023-04-12T16:29:13.625Z,12.20
2023-04-12T16:31:45.253Z,12.20
2023-04-12T16:34:12.391Z,12.20
2023-04-12T16:36:42.248Z,12.30
2023-04-12T16:39:11.202Z,12.30
2023-04-12T16:41:39.473Z,12.30
2023-04-12T16:44:08.601Z,12.30
2023-04-12T16:46:38.091Z,12.40
2023-04-12T16:49:05.058Z,12.30
2023-04-12T16:51:37.291Z,12.30
2023-04-12T16:54:06.418Z,12.30
2023-04-12T16:56:35.188Z,12.40
2023-04-12T16:59:02.235Z,12.40
2023-04-12T17:01:34.545Z,12.40
2023-04-12T17:04:02.794Z,12.40
2023-04-12T17:09:26.642Z,12.40
2023-04-12T17:11:53.450Z,12.30
2023-04-12T17:14:23.619Z,12.30
2023-04-12T17:16:51.319Z,12.30
2023-04-12T17:19:19.500Z,12.20
2023-04-12T17:21:47.624Z,12.20
2023-04-12T17:24:15.767Z,12.10
2023-04-12T17:26:42.496Z,12.10
2023-04-12T17:29:09.590Z,12.00
2023-04-12T17:31:38.475Z,12.00
2023-04-12T17:34:31.295Z,12.00
2023-04-12T17:37:03.593Z,12.00
2023-04-12T17:39:31.445Z,12.00
2023-04-12T17:42:07.286Z,12.00
2023-04-12T17:44:37.549Z,12.00
2023-04-12T17:47:10.540Z,12.10
2023-04-12T17:49:41.230Z,12.10
2023-04-12T17:52:08.194Z,12.00
2023-04-12T17:54:38.754Z,12.00
2023-04-12T17:57:10.038Z,12.00
2023-04-12T17:59:36.720Z,11.90
2023-04-12T18:02:03.806Z,11.90
2023-04-12T18:04:31.381Z,11.90
2023-04-12T18:07:01.068Z,11.80
2023-04-12T18:09:27.785Z,11.70
2023-04-12T18:11:54.688Z,11.70
2023-04-12T18:14:23.600Z,11.70
2023-04-12T18:16:50.953Z,11.50
2023-04-12T18:19:21.120Z,11.50
2023-04-12T18:21:47.930Z,11.40
2023-04-12T18:24:16.152Z,11.30
2023-04-12T18:26:48.796Z,11.30
2023-04-12T18:29:21.165Z,11.20
2023-04-12T18:32:14.988Z,11.20
2023-04-12T18:34:46.223Z,11.20
2023-04-12T18:37:12.924Z,11.10
2023-04-12T18:39:41.950Z,11.10
2023-04-12T18:42:09.232Z,11.00
2023-04-12T18:44:40.675Z,11.00
2023-04-12T18:47:08.710Z,11.00
2023-04-12T18:49:35.381Z,11.00
2023-04-12T18:52:02.028Z,10.90
2023-04-12T18:54:30.653Z,10.90
2023-04-12T18:57:00.968Z,10.90
2023-04-12T18:59:30.441Z,10.80
2023-04-12T19:01:57.292Z,10.80
2023-04-12T19:04:26.603Z,10.80
2023-04-12T19:06:55.226Z,10.80
2023-04-12T19:09:22.788Z,10.80
2023-04-12T19:11:49.466Z,10.80
2023-04-12T19:14:16.806Z,10.70
2023-04-12T19:16:45.465Z,10.70
2023-04-12T19:19:15.975Z,10.70
2023-04-12T19:21:42.638Z,10.70
2023-04-12T19:24:09.247Z,10.70
2023-04-12T19:26:46.012Z,10.70
2023-04-12T19:29:18.894Z,10.80
2023-04-12T19:31:51.426Z,10.80
2023-04-12T19:34:23.428Z,10.80
2023-04-12T19:37:14.914Z,10.80
2023-04-12T19:39:42.692Z,10.80
2023-04-12T19:42:09.948Z,10.80
2023-04-12T19:44:41.135Z,10.80
2023-04-12T19:47:08.684Z,10.80
2023-04-12T19:49:37.373Z,10.80
2023-04-12T19:52:06.764Z,10.80
2023-04-12T19:54:39.141Z,10.60
2023-04-12T19:57:07.389Z,10.40
2023-04-12T19:59:41.885Z,10.20
2023-04-12T20:02:10.133Z,10.00
2023-04-12T20:04:37.404Z,9.80
2023-04-12T20:07:05.315Z,9.70
2023-04-12T20:09:32.058Z,9.60
2023-04-12T20:12:02.391Z,9.50
2023-04-12T20:14:29.045Z,9.50
2023-04-12T20:16:57.248Z,9.40
2023-04-12T20:19:26.775Z,9.40
2023-04-12T20:22:01.002Z,9.50
2023-04-12T20:24:33.901Z,9.50
2023-04-12T20:27:02.946Z,9.40
2023-04-12T20:29:33.879Z,9.40
2023-04-12T20:32:06.416Z,9.50
2023-04-12T20:34:33.494Z,9.50
2023-04-12T20:37:00.320Z,9.50
2023-04-12T20:39:29.954Z,9.50
2023-04-12T20:42:00.225Z,9.40
2023-04-12T20:44:27.415Z,9.50
2023-04-12T20:46:54.311Z,9.50
2023-04-12T20:49:26.771Z,9.50
2023-04-12T20:51:57.962Z,9.40
2023-04-12T20:54:30.987Z,9.40
2023-04-12T20:57:03.798Z,9.40
2023-04-12T20:59:31.695Z,9.40
2023-04-12T21:02:01.552Z,9.40
2023-04-12T21:04:28.515Z,9.40
2023-04-12T21:06:57.935Z,9.40
2023-04-12T21:09:26.010Z,9.50
2023-04-12T21:11:57.167Z,9.50
2023-04-12T21:14:24.653Z,9.50
2023-04-12T21:16:53.866Z,9.50
2023-04-12T21:19:25.335Z,9.40
2023-04-12T21:21:53.194Z,9.40
2023-04-12T21:24:21.066Z,9.40
2023-04-12T21:26:55.676Z,9.40
2023-04-12T21:29:22.935Z,9.40
2023-04-12T21:31:52.052Z,9.40
2023-04-12T21:34:28.904Z,9.30
2023-04-12T21:36:56.877Z,9.40
2023-04-12T21:39:23.578Z,9.40
2023-04-12T21:41:52.647Z,9.40
2023-04-12T21:44:19.532Z,9.40
2023-04-12T21:46:46.263Z,9.30
2023-04-12T21:49:13.157Z,9.40
2023-04-12T21:51:39.848Z,9.40
2023-04-12T21:54:09.836Z,9.40
2023-04-12T21:56:41.077Z,9.40
2023-04-12T21:59:17.475Z,9.40
2023-04-12T22:01:44.955Z,9.40
2023-04-12T22:04:40.712Z,9.40
2023-04-12T22:07:11.815Z,9.30
2023-04-12T22:09:39.500Z,9.30
2023-04-12T22:12:06.296Z,9.30
2023-04-12T22:14:37.150Z,9.20
2023-04-12T22:17:07.114Z,9.30
2023-04-12T22:19:34.538Z,9.20
2023-04-12T22:22:05.656Z,9.20
2023-04-12T22:24:35.848Z,9.20
2023-04-12T22:27:03.123Z,9.20
2023-04-12T22:29:32.009Z,9.20
2023-04-12T22:31:59.341Z,9.20
2023-04-12T22:34:29.140Z,9.20
2023-04-12T22:36:58.215Z,9.20
2023-04-12T22:39:26.167Z,9.10
2023-04-12T22:41:56.552Z,9.10
2023-04-12T22:44:25.840Z,9.10
2023-04-12T22:46:54.026Z,9.10
2023-04-12T22:49:27.369Z,9.00
2023-04-12T22:51:54.760Z,9.00
2023-04-12T22:54:24.645Z,9.00
2023-04-12T22:57:20.236Z,8.90
2023-04-12T22:59:46.916Z,8.90
2023-04-12T23:02:16.083Z,8.90
2023-04-12T23:04:43.466Z,8.90
2023-04-12T23:07:13.296Z,8.80
2023-04-12T23:10:05.699Z,8.80
2023-04-12T23:12:32.575Z,8.80
2023-04-12T23:15:30.662Z,8.80
2023-04-12T23:18:09.949Z,8.80
2023-04-12T23:20:39.619Z,8.80
2023-04-12T23:23:13.071Z,8.80
2023-04-12T23:25:44.689Z,8.90
2023-04-12T23:28:14.458Z,8.80
2023-04-12T23:34:12.566Z,8.90
2023-04-12T23:36:43.152Z,8.90
2023-04-12T23:39:09.845Z,8.90
2023-04-12T23:41:36.642Z,8.90
2023-04-12T23:44:03.288Z,8.90
2023-04-12T23:46:29.996Z,8.90
2023-04-12T23:48:58.951Z,8.90
2023-04-12T23:51:26.532Z,8.90
2023-04-12T23:53:53.151Z,8.90
2023-04-12T23:56:23.123Z,8.80
2023-04-12T23:58:49.705Z,8.80
